Greensburg, Ohio
Current Conditions -  °F | °C
As of 12:51 PM on Monday 26 Jan 2015 (Local Time) from KCAK Reporting Station
Light Snow Light Snow  
Wind Chill: 13°   Ceiling: 1900
Heat Index: 24°   Visibility: 8mi
Dew Point: 17°   Wind: 12mph
Humidity: 75%   Direction: 340°NNW
Pressure: 29.76"   Gusts: NA
Location:  40.9318°N, 81.465°W
Report Text: KCAK 261751Z 34010KT 8SM -SN BKN019 BKN085 OVC150 M04/M08 A2976 RMK AO2 SLP096 4/006 933007 P0000 60007 T10441083 11044 21067 58002 $
Loading
Personal Weather Stations






























Interactive Weather Map New forecast layout! Learn more

10-Day Weather Forecast

Advertisements
Track Severe Weather on mobile